Accueil
METAR-TAF:

METAR-TAF

Aéroports :

Flessingue, Pays-Bas

latitude: 51-27N, longitude: 3-36E, altitude: 10 m

Observation

Le bulletin a été fait il y a 28 minutes, à 07:25 UTC
Vent 6 kt de sud/sud-ouest, variant entre sud et ouest/sud-ouest
Température 2°C
Humidité 100%
Pression 1023 hPa
Visibilité: 2300 m
brume

METAR: EHFS 240725Z AUTO 21006KT 180V250 2300 BR BKN002/// OVC003/// 02/02 Q1023

Heure: 08:53 (07:53 UTC)


TAF: absent

Observations et prévisions météorologiques de plus de 4000 aéroports (messages METAR et TAF).

Les stations disponibles sont représentées par des disques jaunes et rouges sur la carte.

Passer la souris dessus pour voir le nom de la station.

Cliquer dessus pour voir les observations et prévisions météorologiques.

Pour changer de carte: cliquez sur les boutons verts avec une croix noire pour zoomer, sur le bouton vert avec un tiret pour effectuer un zoom arrière, ou sur les flèches vertes pour les cartes adjacentes.


METAR-TAF: